Time;durP1;ratioP1;P1;durP2;ratioP2;P2;SDS_P1;SDS_P2;PMS_P1;PMS_P2;Temp;Humidity;BMP_temperature;BMP_pressure;BME280_temperature;BME280_humidity;BME280_pressure;Samples;Min_cycle;Max_cycle;Signal;HPM_P1;HPM_P2
2023/10/12 00:00:28;;;;;;;16.42;5.28;;;;;;;19.47;100.00;101257.50;5241253;28;20029;-71
2023/10/12 00:02:59;;;;;;;12.57;5.60;;;;;;;19.40;100.00;101249.38;5245858;28;20166;-70
2023/10/12 00:05:34;;;;;;;20.92;5.60;;;;;;;19.40;100.00;101257.53;5244719;28;20115;-70
2023/10/12 00:08:22;;;;;;;11.85;5.53;;;;;;;19.40;100.00;101254.00;5250226;28;20021;-70
2023/10/12 00:10:56;;;;;;;11.43;5.68;;;;;;;19.42;100.00;101255.44;5247000;28;20017;-71
2023/10/12 00:13:41;;;;;;;12.23;5.85;;;;;;;19.33;100.00;101245.03;5249536;28;20488;-71
2023/10/12 00:16:18;;;;;;;;;;;;;;;19.37;100.00;101257.97;5250081;28;20720;-71
2023/10/12 00:18:49;;;;;;;10.23;5.00;;;;;;;19.37;100.00;101260.69;5249747;28;20390;-71
2023/10/12 00:21:25;;;;;;;13.43;5.45;;;;;;;19.34;100.00;101282.06;5256694;28;20023;-71
2023/10/12 00:23:57;;;;;;;15.57;6.10;;;;;;;19.38;100.00;101284.16;5248639;28;20477;-71
2023/10/12 00:26:31;;;;;;;13.73;6.00;;;;;;;19.38;100.00;101292.31;5254527;28;20056;-71
2023/10/12 00:29:06;;;;;;;11.07;5.80;;;;;;;19.37;100.00;101278.91;5256796;28;20035;-71
2023/10/12 00:31:42;;;;;;;14.88;6.07;;;;;;;19.31;100.00;101280.59;5246886;28;20077;-71
2023/10/12 00:34:14;;;;;;;29.07;6.23;;;;;;;19.27;100.00;101276.63;5245144;28;20016;-71
2023/10/12 00:36:53;;;;;;;16.55;6.07;;;;;;;19.22;100.00;101279.13;5255293;28;20083;-71
2023/10/12 00:39:29;;;;;;;15.43;6.18;;;;;;;19.22;100.00;101283.75;5253123;28;20020;-70
2023/10/12 00:42:03;;;;;;;17.25;6.50;;;;;;;19.20;100.00;101291.28;5256627;28;20359;-70
2023/10/12 00:44:40;;;;;;;13.75;6.70;;;;;;;19.17;100.00;101291.72;5250542;28;20020;-70
2023/10/12 00:47:19;;;;;;;14.48;6.35;;;;;;;19.11;100.00;101296.13;5256385;28;20076;-70
2023/10/12 00:49:55;;;;;;;13.85;6.78;;;;;;;19.00;100.00;101305.75;5254323;28;20017;-70
2023/10/12 00:52:35;;;;;;;16.88;7.40;;;;;;;18.94;100.00;101300.34;5247925;28;20027;-70
2023/10/12 00:55:21;;;;;;;20.13;7.78;;;;;;;18.82;100.00;101290.06;5249024;28;20008;-70
2023/10/12 00:57:56;;;;;;;14.07;6.97;;;;;;;18.80;100.00;101272.31;5248942;28;20035;-70
2023/10/12 01:00:35;;;;;;;20.45;7.65;;;;;;;18.72;100.00;101305.97;5253520;28;20170;-70
2023/10/12 01:03:27;;;;;;;15.80;8.07;;;;;;;18.68;100.00;101306.59;5256652;28;20066;-70
2023/10/12 01:06:13;;;;;;;20.10;8.68;;;;;;;18.62;100.00;101317.25;5251600;28;20420;-71
2023/10/12 01:08:50;;;;;;;18.98;8.50;;;;;;;18.55;100.00;101320.97;5252050;28;20055;-71
2023/10/12 01:11:33;;;;;;;17.30;9.05;;;;;;;18.51;100.00;101325.16;5252889;28;20354;-71
2023/10/12 01:14:28;;;;;;;25.23;9.17;;;;;;;18.37;100.00;101330.59;5249337;28;20016;-72
2023/10/12 01:17:24;;;;;;;17.13;8.90;;;;;;;18.28;100.00;101322.81;5246413;28;20254;-71
2023/10/12 01:20:25;;;;;;;17.88;8.93;;;;;;;18.22;100.00;101329.88;5246692;28;20503;-71
2023/10/12 01:22:51;;;;;;;21.75;10.43;;;;;;;18.21;100.00;101327.38;5247171;28;20029;-71
2023/10/12 01:25:30;;;;;;;21.52;10.35;;;;;;;18.13;100.00;101319.44;5256036;28;20457;-71
2023/10/12 01:28:12;;;;;;;27.42;10.65;;;;;;;18.14;100.00;101304.81;5252006;28;20103;-71
2023/10/12 01:30:45;;;;;;;26.80;10.93;;;;;;;18.11;100.00;101327.78;5248808;28;20504;-71
2023/10/12 01:33:19;;;;;;;19.98;10.55;;;;;;;17.92;100.00;101333.97;5249603;28;20016;-71
2023/10/12 01:36:06;;;;;;;28.25;12.45;;;;;;;17.90;100.00;101346.91;5254047;28;20044;-72
2023/10/12 01:38:37;;;;;;;20.73;11.02;;;;;;;17.85;100.00;101329.34;5252483;28;20051;-71
2023/10/12 01:41:11;;;;;;;23.42;12.00;;;;;;;17.85;100.00;101326.63;5255013;28;20047;-72
2023/10/12 01:43:43;;;;;;;23.88;11.52;;;;;;;17.90;100.00;101327.91;5249346;28;20107;-72
2023/10/12 01:46:21;;;;;;;25.77;11.80;;;;;;;17.84;100.00;101319.53;5253282;28;20072;-71
2023/10/12 01:48:52;;;;;;;24.33;10.40;;;;;;;17.84;100.00;101305.13;5251496;28;20024;-71
2023/10/12 01:51:25;;;;;;;25.05;11.48;;;;;;;17.80;100.00;101312.84;5252244;28;20485;-71
2023/10/12 01:54:01;;;;;;;24.27;12.32;;;;;;;17.66;100.00;101316.50;5248165;28;20379;-71
2023/10/12 01:56:33;;;;;;;28.80;13.95;;;;;;;17.58;100.00;101332.97;5252826;28;20017;-71
2023/10/12 01:59:07;;;;;;;25.35;12.13;;;;;;;17.55;100.00;101309.78;5249744;28;20020;-72
2023/10/12 02:01:47;;;;;;;30.40;12.90;;;;;;;17.54;100.00;101280.97;5246985;28;20056;-71
2023/10/12 02:04:21;;;;;;;28.48;12.85;;;;;;;17.49;100.00;101252.78;5247970;28;20031;-71
2023/10/12 02:06:52;;;;;;;25.02;12.55;;;;;;;17.53;100.00;101226.94;5246252;28;20436;-71
2023/10/12 02:09:23;;;;;;;26.88;12.45;;;;;;;17.54;100.00;101239.44;5248859;28;20027;-72
2023/10/12 02:11:54;;;;;;;21.33;11.20;;;;;;;17.54;100.00;101253.00;5248870;28;20481;-71
2023/10/12 02:14:34;;;;;;;22.85;13.07;;;;;;;17.56;100.00;101234.66;5249491;28;20100;-71
2023/10/12 02:17:13;;;;;;;27.27;13.70;;;;;;;17.54;100.00;101218.59;5250097;28;20060;-71
2023/10/12 02:19:49;;;;;;;25.58;12.38;;;;;;;17.57;100.00;101223.63;5249597;28;20040;-71
2023/10/12 02:22:24;;;;;;;26.33;12.00;;;;;;;17.57;100.00;101228.19;5245933;28;20419;-71
2023/10/12 02:25:07;;;;;;;27.63;11.77;;;;;;;17.58;100.00;101240.72;5248859;28;20137;-71
2023/10/12 02:27:42;;;;;;;25.63;13.00;;;;;;;17.54;100.00;101272.00;5248077;28;20367;-72
2023/10/12 02:30:18;;;;;;;35.97;13.27;;;;;;;17.44;100.00;101309.50;5250187;28;20024;-71
2023/10/12 02:33:00;;;;;;;31.85;13.35;;;;;;;17.23;100.00;101324.81;5247703;28;20017;-71
2023/10/12 02:35:44;;;;;;;26.20;12.98;;;;;;;17.19;100.00;101317.28;5251866;28;20036;-71
2023/10/12 02:38:17;;;;;;;31.90;13.48;;;;;;;17.16;100.00;101306.81;5252773;28;20020;-72
2023/10/12 02:40:59;;;;;;;31.80;13.55;;;;;;;17.18;100.00;101283.91;5248355;28;20205;-71
2023/10/12 02:43:32;;;;;;;29.00;13.38;;;;;;;17.16;100.00;101274.28;5251330;28;20025;-71
2023/10/12 02:46:17;;;;;;;30.00;13.27;;;;;;;17.17;100.00;101260.56;5251741;28;20374;-71
2023/10/12 02:48:52;;;;;;;25.42;13.45;;;;;;;17.14;100.00;101249.25;5248131;28;20013;-72
2023/10/12 02:51:26;;;;;;;;;;;;;;;17.09;100.00;101256.13;5252165;28;20043;-71
2023/10/12 02:54:03;;;;;;;26.50;13.35;;;;;;;17.10;100.00;101259.66;5251822;28;19915;-71
2023/10/12 02:56:35;;;;;;;33.55;14.20;;;;;;;17.07;100.00;101251.94;5250469;28;20016;-72
2023/10/12 02:59:13;;;;;;;;;;;;;;;17.11;100.00;101261.31;5252237;28;20032;-72
2023/10/12 03:01:49;;;;;;;27.20;14.00;;;;;;;17.10;100.00;101254.25;5245469;28;20403;-72
2023/10/12 03:04:24;;;;;;;30.23;13.90;;;;;;;17.11;100.00;101244.22;5248390;28;20027;-72
2023/10/12 03:06:58;;;;;;;30.05;13.93;;;;;;;17.09;100.00;101239.03;5251710;28;20028;-72
2023/10/12 03:09:36;;;;;;;28.60;13.65;;;;;;;17.04;100.00;101228.78;5250578;28;20119;-72
2023/10/12 03:12:13;;;;;;;28.23;13.63;;;;;;;17.03;100.00;101229.81;5252175;28;20466;-72
2023/10/12 03:14:44;;;;;;;34.45;14.40;;;;;;;17.02;100.00;101230.03;5241218;28;20029;-72
2023/10/12 03:17:18;;;;;;;29.77;14.20;;;;;;;16.98;100.00;101242.28;5251103;28;20028;-72
2023/10/12 03:20:15;;;;;;;31.00;14.18;;;;;;;16.96;100.00;101258.72;5251304;28;20028;-72
2023/10/12 03:22:52;;;;;;;28.90;13.88;;;;;;;16.91;100.00;101290.19;5251114;28;20366;-72
2023/10/12 03:25:42;;;;;;;27.77;13.77;;;;;;;16.96;100.00;101287.72;5247338;28;20028;-72
2023/10/12 03:28:44;;;;;;;33.05;14.07;;;;;;;16.95;100.00;101291.47;5251958;28;20419;-72
2023/10/12 03:31:15;;;;;;;26.02;13.30;;;;;;;16.91;100.00;101292.88;5252822;28;20027;-72
2023/10/12 03:33:53;;;;;;;31.13;15.77;;;;;;;16.89;100.00;101308.50;5251411;28;20035;-72
2023/10/12 03:36:31;;;;;;;30.20;14.93;;;;;;;16.82;100.00;101298.47;5248059;28;20027;-72
2023/10/12 03:41:46;;;;;;;30.63;14.68;;;;;;;16.84;100.00;101311.81;5247402;28;20444;-72
2023/10/12 03:44:24;;;;;;;31.05;14.35;;;;;;;16.88;100.00;101307.69;5250752;28;20419;-72
2023/10/12 03:47:04;;;;;;;34.45;14.43;;;;;;;16.85;100.00;101299.09;5250279;28;20027;-72
2023/10/12 03:49:57;;;;;;;31.02;15.43;;;;;;;16.81;100.00;101299.47;5247348;28;20104;-72
2023/10/12 03:52:34;;;;;;;49.67;15.82;;;;;;;16.80;100.00;101300.50;5246658;28;20020;-72
2023/10/12 03:57:47;;;;;;;40.65;14.90;;;;;;;16.78;100.00;101288.22;5243766;28;20074;-72
2023/10/12 04:03:03;;;;;;;35.35;14.57;;;;;;;16.68;100.00;101266.84;5250917;28;20107;-71
2023/10/12 04:05:35;;;;;;;36.00;15.15;;;;;;;16.68;100.00;101264.13;5249182;28;20033;-72
2023/10/12 04:16:10;;;;;;;28.50;13.38;;;;;;;16.71;100.00;101274.59;5250695;28;20032;-72
2023/10/12 04:21:33;;;;;;;29.08;14.00;;;;;;;16.68;100.00;101269.56;5251901;28;20031;-71
2023/10/12 04:27:23;;;;;;;29.67;13.95;;;;;;;16.59;100.00;101265.31;5248704;28;20052;-72
2023/10/12 04:29:58;;;;;;;28.83;14.40;;;;;;;16.58;100.00;101272.59;5247443;28;20032;-72
2023/10/12 04:32:38;;;;;;;30.23;14.13;;;;;;;16.59;100.00;101273.44;5249170;28;20039;-72
2023/10/12 04:35:20;;;;;;;33.78;13.75;;;;;;;16.57;100.00;101268.22;5248839;28;20024;-72
2023/10/12 04:37:55;;;;;;;24.58;13.40;;;;;;;16.61;100.00;101271.34;5249125;28;20028;-72
2023/10/12 04:40:37;;;;;;;28.67;12.98;;;;;;;16.62;100.00;101278.47;5249214;28;20005;-71
2023/10/12 04:43:23;;;;;;;24.33;13.90;;;;;;;16.58;100.00;101277.19;5252774;28;20480;-72
2023/10/12 04:48:43;;;;;;;28.25;13.10;;;;;;;16.56;100.00;101290.06;5242825;28;20024;-72
2023/10/12 04:51:19;;;;;;;30.53;14.47;;;;;;;16.57;100.00;101289.06;5249828;28;20032;-72
2023/10/12 04:54:05;;;;;;;31.10;13.68;;;;;;;16.62;100.00;101283.88;5246437;28;20019;-72
2023/10/12 04:56:39;;;;;;;29.42;12.60;;;;;;;16.63;100.00;101296.41;5248635;28;20025;-72
2023/10/12 04:59:26;;;;;;;38.72;14.77;;;;;;;16.58;100.00;101298.84;5248506;28;20024;-72
2023/10/12 05:02:27;;;;;;;32.38;14.57;;;;;;;16.53;100.00;101293.19;5251416;28;20060;-72
2023/10/12 05:05:15;;;;;;;30.52;14.32;;;;;;;16.52;100.00;101296.94;5254504;28;20028;-72
2023/10/12 05:07:57;;;;;;;29.38;14.50;;;;;;;16.58;100.00;101296.97;5251909;28;20036;-72
2023/10/12 05:13:11;;;;;;;31.63;13.75;;;;;;;16.63;100.00;101312.66;5254586;28;20028;-72
2023/10/12 05:15:54;;;;;;;30.70;14.32;;;;;;;16.69;100.00;101302.91;5248980;28;20044;-72
2023/10/12 05:18:27;;;;;;;34.88;14.82;;;;;;;16.66;100.00;101308.69;5252698;28;20024;-71
2023/10/12 05:21:00;;;;;;;32.63;14.63;;;;;;;16.71;100.00;101311.66;5254602;28;20062;-71
2023/10/12 05:23:35;;;;;;;29.92;12.95;;;;;;;16.71;100.00;101312.53;5250758;28;20024;-72
2023/10/12 05:26:14;;;;;;;31.35;15.10;;;;;;;16.73;100.00;101315.91;5254310;28;20157;-72
2023/10/12 05:29:08;;;;;;;32.05;14.82;;;;;;;16.78;100.00;101310.72;5250946;28;20107;-72
2023/10/12 05:32:05;;;;;;;33.95;14.10;;;;;;;16.76;100.00;101306.53;5249305;28;20397;-71
2023/10/12 05:39:46;;;;;;;26.77;13.45;;;;;;;16.77;100.00;101330.72;5252277;28;20052;-72
2023/10/12 05:42:20;;;;;;;32.65;13.93;;;;;;;16.78;100.00;101328.84;5250558;28;20374;-72
2023/10/12 05:45:17;;;;;;;33.15;14.80;;;;;;;16.81;100.00;101325.75;5243286;28;20036;-72
2023/10/12 05:47:52;;;;;;;29.15;14.27;;;;;;;16.77;100.00;101324.47;5253900;28;20490;-72
2023/10/12 05:50:30;;;;;;;32.72;15.38;;;;;;;16.80;100.00;101330.31;5252274;28;20459;-72
2023/10/12 05:53:07;;;;;;;33.90;14.77;;;;;;;16.77;100.00;101338.03;5252925;28;20031;-72
2023/10/12 05:55:40;;;;;;;31.85;14.07;;;;;;;16.82;100.00;101339.13;5251964;28;20499;-72
2023/10/12 05:58:15;;;;;;;28.45;14.73;;;;;;;16.83;100.00;101332.66;5246539;28;20285;-72
2023/10/12 06:00:54;;;;;;;37.25;15.52;;;;;;;16.84;100.00;101344.31;5251666;28;20525;-72
2023/10/12 06:03:25;;;;;;;29.75;14.77;;;;;;;16.82;100.00;101336.41;5251448;28;20503;-72
2023/10/12 06:06:06;;;;;;;30.42;14.65;;;;;;;16.81;100.00;101333.88;5252193;28;20489;-72
2023/10/12 06:08:38;;;;;;;29.67;13.98;;;;;;;16.83;100.00;101346.19;5249956;28;20661;-72
2023/10/12 06:11:18;;;;;;;28.02;14.45;;;;;;;16.88;100.00;101348.31;5249843;28;20066;-72
2023/10/12 06:13:51;;;;;;;;;;;;;;;16.85;100.00;101342.44;5250489;28;20500;-72
2023/10/12 06:16:28;;;;;;;;;;;;;;;16.88;100.00;101339.38;5253358;28;20337;-72
2023/10/12 06:19:05;;;;;;;31.45;13.15;;;;;;;16.87;100.00;101338.53;5250711;28;19916;-71
2023/10/12 06:21:42;;;;;;;34.15;14.35;;;;;;;16.87;100.00;101343.09;5249905;28;20051;-72
2023/10/12 06:24:21;;;;;;;28.50;13.65;;;;;;;16.86;100.00;101328.69;5250611;28;20556;-72
2023/10/12 06:26:54;;;;;;;33.20;14.25;;;;;;;16.79;100.00;101334.06;5250244;28;20445;-72
2023/10/12 06:29:34;;;;;;;27.58;14.00;;;;;;;16.73;100.00;101337.56;5250379;28;21483;-72
2023/10/12 06:32:17;;;;;;;27.08;13.75;;;;;;;16.67;100.00;101346.44;5251972;28;20531;-72
2023/10/12 06:45:52;;;;;;;30.73;13.70;;;;;;;16.63;100.00;101349.72;5251679;28;20046;-72
2023/10/12 06:51:13;;;;;;;32.13;14.32;;;;;;;16.55;100.00;101343.41;5247906;28;20024;-72
2023/10/12 06:54:06;;;;;;;26.58;13.23;;;;;;;16.57;100.00;101335.09;5244853;28;20461;-72
2023/10/12 06:56:40;;;;;;;39.97;14.60;;;;;;;16.55;100.00;101335.28;5243510;28;20375;-72
2023/10/12 06:59:28;;;;;;;29.25;13.63;;;;;;;16.57;100.00;101345.94;5242306;28;20117;-72
2023/10/12 07:02:09;;;;;;;31.58;13.68;;;;;;;16.53;100.00;101345.47;5249525;28;20052;-72
2023/10/12 07:04:53;;;;;;;27.20;12.82;;;;;;;16.53;100.00;101353.59;5244897;28;20215;-72
2023/10/12 07:07:27;;;;;;;25.35;12.85;;;;;;;16.56;100.00;101341.53;5243822;28;20385;-72
2023/10/12 07:10:13;;;;;;;31.30;14.10;;;;;;;16.58;100.00;101353.84;5241610;28;20456;-72
2023/10/12 07:12:48;;;;;;;30.50;13.70;;;;;;;16.64;100.00;101363.06;5244426;28;20020;-72
2023/10/12 07:15:22;;;;;;;33.28;13.50;;;;;;;16.65;100.00;101381.00;5241807;28;20107;-72
2023/10/12 07:17:55;;;;;;;23.63;12.55;;;;;;;16.68;100.00;101377.91;5249147;28;20016;-72
2023/10/12 07:25:59;;;;;;;30.42;12.98;;;;;;;16.69;100.00;101379.59;5248543;28;20254;-72
2023/10/12 07:28:39;;;;;;;25.80;12.07;;;;;;;16.71;100.00;101385.66;5247222;28;20032;-72
2023/10/12 07:33:52;;;;;;;24.52;11.18;;;;;;;16.71;100.00;101372.13;5247556;28;20020;-71
2023/10/12 07:36:57;;;;;;;26.60;11.35;;;;;;;16.72;100.00;101381.13;5250650;28;20027;-72
2023/10/12 07:39:38;;;;;;;25.23;11.07;;;;;;;16.72;100.00;101376.53;5242784;28;20034;-72
2023/10/12 07:42:12;;;;;;;19.45;11.30;;;;;;;16.68;100.00;101375.22;5250028;28;20036;-72
2023/10/12 07:44:54;;;;;;;23.05;10.15;;;;;;;16.70;100.00;101378.56;5249832;28;20020;-72
2023/10/12 07:47:32;;;;;;;20.73;10.20;;;;;;;16.76;100.00;101369.66;5244282;28;20586;-72
2023/10/12 07:50:09;;;;;;;23.40;10.30;;;;;;;16.80;100.00;101364.72;5240208;28;20029;-72
2023/10/12 07:52:46;;;;;;;27.90;10.63;;;;;;;16.88;100.00;101364.59;5240423;28;20035;-72
2023/10/12 07:55:17;;;;;;;21.60;9.73;;;;;;;16.94;100.00;101363.78;5240479;28;20112;-72
2023/10/12 07:57:52;;;;;;;;;;;;;;;17.05;100.00;101367.84;5239917;28;20697;-71
2023/10/12 08:00:36;;;;;;;17.92;9.30;;;;;;;17.16;100.00;101369.19;5236051;28;19966;-72
2023/10/12 08:06:01;;;;;;;20.05;9.57;;;;;;;17.25;100.00;101368.84;5247957;28;20048;-72
2023/10/12 08:08:45;;;;;;;22.23;9.07;;;;;;;17.29;100.00;101370.13;5245747;28;20170;-72
2023/10/12 08:11:31;;;;;;;21.27;9.30;;;;;;;17.34;100.00;101367.66;5248048;28;20078;-72
2023/10/12 08:14:18;;;;;;;22.90;8.95;;;;;;;17.41;100.00;101375.00;5249450;28;20119;-72
2023/10/12 08:20:43;;;;;;;19.15;9.13;;;;;;;17.60;100.00;101368.84;5246197;28;20460;-72
2023/10/12 08:22:54;;;;;;;16.55;8.13;;;;;;;17.69;100.00;101375.81;5247592;28;20024;-72
2023/10/12 08:25:37;;;;;;;18.92;8.48;;;;;;;17.70;100.00;101374.75;5242070;28;20016;-72
2023/10/12 08:28:21;;;;;;;22.50;9.05;;;;;;;17.71;100.00;101384.56;5247334;28;20059;-72
2023/10/12 08:31:14;;;;;;;27.20;8.85;;;;;;;17.78;100.00;101382.78;5248547;28;20040;-72
2023/10/12 08:33:58;;;;;;;19.58;8.10;;;;;;;17.86;100.00;101377.16;5242540;28;20031;-72
2023/10/12 08:36:38;;;;;;;;;;;;;;;17.90;100.00;101387.63;5246227;28;20524;-72
2023/10/12 08:39:09;;;;;;;17.02;8.07;;;;;;;17.98;100.00;101390.19;5245408;28;20367;-72
2023/10/12 08:44:34;;;;;;;19.80;8.70;;;;;;;18.08;100.00;101385.22;5253002;28;20481;-72
2023/10/12 08:47:09;;;;;;;16.30;8.45;;;;;;;18.14;100.00;101380.84;5247499;28;20388;-72
2023/10/12 08:49:52;;;;;;;23.13;7.90;;;;;;;18.13;100.00;101384.63;5253079;28;20484;-72
2023/10/12 08:52:35;;;;;;;24.23;9.02;;;;;;;18.18;100.00;101387.56;5247617;28;20565;-72
2023/10/12 08:55:19;;;;;;;15.73;7.28;;;;;;;18.27;100.00;101379.03;5250086;28;20029;-72
2023/10/12 08:58:25;;;;;;;16.67;7.68;;;;;;;18.32;100.00;101389.25;5247839;28;20031;-72
2023/10/12 09:01:10;;;;;;;22.65;8.15;;;;;;;18.46;100.00;101380.09;5248850;28;20024;-72
2023/10/12 09:03:53;;;;;;;22.70;7.80;;;;;;;18.43;100.00;101385.13;5244295;28;20090;-72
2023/10/12 09:06:53;;;;;;;;;;;;;;;18.41;100.00;101389.91;5243149;28;20032;-72
2023/10/12 09:12:11;;;;;;;19.40;8.45;;;;;;;18.45;100.00;101375.72;5241694;28;20056;-72
2023/10/12 09:14:43;;;;;;;23.98;9.00;;;;;;;18.56;100.00;101379.72;5248877;28;20074;-72
2023/10/12 09:17:33;;;;;;;22.33;7.38;;;;;;;18.51;100.00;101384.91;5245392;28;20311;-72
2023/10/12 09:20:29;;;;;;;16.23;8.07;;;;;;;18.53;100.00;101385.56;5243872;28;20508;-72
2023/10/12 09:23:11;;;;;;;18.02;7.50;;;;;;;18.68;100.00;101371.81;5248115;28;20037;-72
2023/10/12 09:25:59;;;;;;;22.42;7.63;;;;;;;18.66;100.00;101380.13;5242347;28;20063;-72
2023/10/12 09:28:42;;;;;;;23.33;8.02;;;;;;;18.62;100.00;101379.75;5243655;28;20093;-72
2023/10/12 09:31:15;;;;;;;29.67;9.18;;;;;;;18.78;100.00;101386.69;5245632;28;20077;-72
2023/10/12 09:34:12;;;;;;;26.73;8.27;;;;;;;18.80;100.00;101400.06;5242916;28;20500;-71
2023/10/12 09:36:53;;;;;;;16.30;7.20;;;;;;;18.65;100.00;101381.19;5245258;28;20448;-72
2023/10/12 09:39:34;;;;;;;18.17;6.97;;;;;;;18.57;100.00;101376.78;5241464;28;20052;-71
2023/10/12 09:42:13;;;;;;;20.08;8.15;;;;;;;18.50;100.00;101388.69;5244691;28;20037;-72
2023/10/12 09:44:53;;;;;;;18.63;7.40;;;;;;;18.62;100.00;101389.75;5248831;28;20107;-71
2023/10/12 09:47:35;;;;;;;22.60;7.20;;;;;;;18.55;100.00;101384.31;5243776;28;20036;-71
2023/10/12 09:50:13;;;;;;;20.13;7.45;;;;;;;18.55;100.00;101389.75;5247144;28;20373;-72
2023/10/12 09:52:57;;;;;;;19.20;7.18;;;;;;;18.53;100.00;101391.00;5243501;28;20566;-72
2023/10/12 09:55:37;;;;;;;17.65;7.80;;;;;;;18.41;100.00;101392.63;5245267;28;20496;-72
2023/10/12 09:58:22;;;;;;;21.58;7.80;;;;;;;18.41;100.00;101395.34;5244357;28;20386;-71
2023/10/12 10:00:55;;;;;;;23.48;7.88;;;;;;;18.29;100.00;101395.94;5243794;28;20085;-72
2023/10/12 10:03:35;;;;;;;19.05;7.75;;;;;;;18.19;100.00;101390.06;5245263;28;20033;-72
2023/10/12 10:06:20;;;;;;;20.15;8.05;;;;;;;18.17;100.00;101397.56;5247540;28;20398;-72
2023/10/12 10:09:09;;;;;;;21.50;7.97;;;;;;;18.08;100.00;101375.19;5248336;28;20695;-72
2023/10/12 10:11:40;;;;;;;17.58;8.43;;;;;;;18.00;100.00;101374.53;5245319;28;20056;-72
2023/10/12 10:14:17;;;;;;;20.40;8.13;;;;;;;18.05;100.00;101374.75;5242767;28;20055;-72
2023/10/12 10:16:57;;;;;;;18.65;8.02;;;;;;;18.00;100.00;101366.38;5246714;28;20024;-72
2023/10/12 10:19:29;;;;;;;18.20;7.47;;;;;;;17.99;100.00;101362.81;5240593;28;20417;-72
2023/10/12 10:22:06;;;;;;;19.38;8.25;;;;;;;18.02;100.00;101359.72;5242627;28;20123;-72
2023/10/12 10:24:43;;;;;;;19.80;7.95;;;;;;;17.96;100.00;101346.94;5243322;28;20035;-72
2023/10/12 10:27:15;;;;;;;20.05;8.43;;;;;;;17.95;100.00;101339.00;5244715;28;20450;-72
2023/10/12 10:29:53;;;;;;;19.70;7.80;;;;;;;18.04;100.00;101348.66;5243840;28;20020;-72
2023/10/12 10:32:29;;;;;;;22.58;7.28;;;;;;;18.22;100.00;101354.31;5240856;28;20052;-72
2023/10/12 10:35:07;;;;;;;28.67;9.10;;;;;;;18.49;100.00;101363.41;5244211;28;20020;-72
2023/10/12 10:37:47;;;;;;;18.65;8.23;;;;;;;18.60;100.00;101368.22;5240643;28;20021;-72
2023/10/12 10:40:17;;;;;;;23.77;8.05;;;;;;;18.74;100.00;101366.41;5239650;28;20083;-71
2023/10/12 10:43:00;;;;;;;17.83;7.50;;;;;;;18.63;100.00;101372.41;5241490;28;20501;-71
2023/10/12 10:45:35;;;;;;;22.42;8.50;;;;;;;18.86;100.00;101375.59;5241239;28;20045;-71
2023/10/12 10:48:06;;;;;;;21.80;9.15;;;;;;;18.94;100.00;101374.56;5243908;28;20028;-72
2023/10/12 10:50:43;;;;;;;21.77;8.10;;;;;;;19.12;100.00;101372.03;5240742;28;20848;-72
2023/10/12 10:53:15;;;;;;;20.65;8.00;;;;;;;19.17;100.00;101373.28;5241871;28;20102;-72
2023/10/12 10:55:50;;;;;;;20.63;8.50;;;;;;;19.26;100.00;101364.72;5242385;28;20097;-72
2023/10/12 10:58:22;;;;;;;16.30;8.23;;;;;;;19.23;100.00;101362.44;5240323;28;20077;-72
2023/10/12 11:00:56;;;;;;;23.35;8.32;;;;;;;19.24;100.00;101358.66;5240757;28;20039;-72
2023/10/12 11:03:32;;;;;;;15.02;7.88;;;;;;;19.50;100.00;101362.38;5239761;28;20064;-72
2023/10/12 11:06:03;;;;;;;22.23;7.97;;;;;;;19.70;100.00;101363.19;5243229;28;20036;-72
2023/10/12 11:08:34;;;;;;;21.73;8.35;;;;;;;19.84;100.00;101366.72;5239292;28;20051;-72
2023/10/12 11:13:40;;;;;;;26.17;9.48;;;;;;;19.82;100.00;101366.09;5238369;28;20032;-72
2023/10/12 11:16:20;;;;;;;20.45;9.40;;;;;;;19.77;100.00;101368.63;5239414;28;20106;-72
2023/10/12 11:18:52;;;;;;;20.45;9.00;;;;;;;19.47;100.00;101369.06;5242018;28;20029;-72
2023/10/12 11:21:25;;;;;;;26.20;10.60;;;;;;;19.37;100.00;101372.22;5242684;28;20052;-72
2023/10/12 11:23:59;;;;;;;27.02;10.05;;;;;;;19.24;100.00;101360.53;5238745;28;20017;-72
2023/10/12 11:26:39;;;;;;;19.42;9.45;;;;;;;19.13;100.00;101359.31;5238747;28;20460;-72
2023/10/12 11:29:11;;;;;;;21.38;10.13;;;;;;;19.21;100.00;101356.34;5238277;28;20036;-72
2023/10/12 11:31:46;;;;;;;25.08;10.20;;;;;;;19.10;100.00;101349.66;5233602;28;20039;-72
2023/10/12 11:34:23;;;;;;;19.30;9.23;;;;;;;19.21;100.00;101352.78;5242023;28;20747;-72
2023/10/12 11:36:57;;;;;;;20.23;10.38;;;;;;;19.13;100.00;101364.75;5235934;28;20040;-72
2023/10/12 11:39:39;;;;;;;23.08;10.98;;;;;;;18.96;100.00;101361.59;5239517;28;20123;-72
2023/10/12 11:42:17;;;;;;;24.85;9.25;;;;;;;19.01;100.00;101363.69;5238984;28;20375;-72
2023/10/12 11:44:51;;;;;;;23.02;10.10;;;;;;;18.97;100.00;101360.53;5244158;28;20032;-72
2023/10/12 11:47:23;;;;;;;29.48;11.80;;;;;;;19.02;100.00;101365.34;5241490;28;20024;-72
2023/10/12 11:49:56;;;;;;;27.52;11.00;;;;;;;19.00;100.00;101357.41;5239315;28;20127;-72
2023/10/12 11:52:32;;;;;;;25.02;10.40;;;;;;;19.05;100.00;101349.47;5240774;28;20036;-72
2023/10/12 11:55:06;;;;;;;23.38;10.98;;;;;;;19.08;100.00;101350.94;5240723;28;20028;-72
2023/10/12 11:57:40;;;;;;;25.27;11.68;;;;;;;19.09;100.00;101344.44;5240567;28;20025;-72
2023/10/12 12:00:36;;;;;;;25.15;10.10;;;;;;;19.15;100.00;101340.88;5242444;28;20039;-72
2023/10/12 12:03:03;;;;;;;23.98;11.45;;;;;;;19.17;100.00;101337.94;5243354;28;20490;-72
2023/10/12 12:05:36;;;;;;;23.42;11.30;;;;;;;19.18;100.00;101335.03;5241031;28;20077;-71
2023/10/12 12:08:10;;;;;;;23.35;10.77;;;;;;;19.14;100.00;101328.34;5242922;28;20492;-72
2023/10/12 12:10:45;;;;;;;20.70;10.85;;;;;;;19.29;100.00;101323.50;5238438;28;20032;-72
2023/10/12 12:13:20;;;;;;;26.05;10.25;;;;;;;19.24;100.00;101322.47;5238893;28;20032;-72
2023/10/12 12:15:55;;;;;;;22.27;10.18;;;;;;;19.24;100.00;101319.75;5242163;28;20035;-72
2023/10/12 12:18:27;;;;;;;16.05;9.63;;;;;;;19.21;100.00;101304.69;5240124;28;20036;-72
2023/10/12 12:20:58;;;;;;;20.55;9.68;;;;;;;19.25;100.00;101310.53;5240317;28;20044;-72
2023/10/12 12:23:33;;;;;;;21.75;10.38;;;;;;;19.20;100.00;101324.78;5239692;28;20453;-72
2023/10/12 12:26:07;;;;;;;21.80;8.93;;;;;;;18.96;100.00;101319.97;5242272;28;20052;-72
2023/10/12 12:28:44;;;;;;;24.40;10.73;;;;;;;18.96;100.00;101330.84;5244048;28;20024;-72
2023/10/12 12:31:15;;;;;;;27.27;9.27;;;;;;;18.97;100.00;101340.66;5241515;28;20357;-72
2023/10/12 12:33:45;;;;;;;21.30;9.98;;;;;;;18.96;100.00;101328.13;5242498;28;20110;-72
2023/10/12 12:36:22;;;;;;;24.55;9.55;;;;;;;18.89;100.00;101325.44;5238827;28;20024;-72
2023/10/12 12:38:57;;;;;;;23.20;10.55;;;;;;;18.93;100.00;101326.69;5239041;28;20048;-72
2023/10/12 12:41:30;;;;;;;25.05;9.50;;;;;;;18.74;100.00;101305.78;5243475;28;20040;-73
2023/10/12 12:44:00;;;;;;;23.55;10.35;;;;;;;18.64;100.00;101301.56;5243355;28;20032;-73
2023/10/12 12:46:31;;;;;;;18.27;9.68;;;;;;;18.69;100.00;101291.97;5243642;28;20043;-72
2023/10/12 12:49:02;;;;;;;24.73;9.98;;;;;;;18.59;100.00;101301.34;5238256;28;20036;-72
2023/10/12 12:51:32;;;;;;;20.40;9.27;;;;;;;18.55;100.00;101291.09;5240071;28;20166;-72
2023/10/12 12:54:03;;;;;;;20.60;9.20;;;;;;;18.67;100.00;101294.00;5238239;28;20028;-72
2023/10/12 12:56:36;;;;;;;46.20;29.25;;;;;;;18.82;100.00;101319.13;5239506;28;20530;-72
2023/10/12 12:59:07;;;;;;;23.67;10.25;;;;;;;18.75;100.00;101308.28;5238876;28;20033;-73
2023/10/12 13:01:39;;;;;;;18.95;8.48;;;;;;;18.79;100.00;101306.81;5238429;28;20086;-73
2023/10/12 13:04:09;;;;;;;19.77;9.27;;;;;;;18.83;100.00;101309.97;5238866;28;20431;-73